Impacts TAF Board INFO
FOR SITUATIONAL AWARENESS. NOT TO BE USED FOR FLIGHT PLANNING PURPOSES.
IDs:

KMIA - Miami Intl, FL, US

Issued at 2343 UTC 19 Oct 2017
Updated at 0145 UTC 20 Oct 2017
Potential Impact None Slight Moderate High
Time0053Z 20/02Z 20/03Z 20/04Z 20/05Z 20/06Z 20/07Z 20/08Z 20/09Z 20/10Z 20/11Z 20/12Z 20/13Z 20/14Z>>
Type OBS PRVL PRVL PRVL PRVL PRVL PRVL PRVL PRVL PRVL PRVL PRVL PRVL PRVL
VIS 10 >6 >6 >6 >6 >6 >6 >6 >6 >6 >6 >6 >6 >6
CIG 23 70 70 70 70 70 70 70 70 70 70 70 70 70
Cover OVC BKN BKN BKN BKN BKN BKN BKN BKN BKN BKN BKN BKN BKN
FltCat MVFR VFR VFR VFR VFR VFR VFR VFR VFR VFR VFR VFR VFR VFR
WX -- VCSH VCSH VCSH VCSH VCSH VCSH VCSH VCSH VCSH VCSH VCSH VCSH VCSH
WDir 350 40 40 40 40 40 40 40 40 40 40 40 40 40
WSpd 6 8 8 8 8 8 8 8 8 8 8 8 8 8
WGst -- -- -- -- -- -- -- -- -- -- -- -- -- --

Raw TAF
KMIA 192343Z 2000/2024 04008KT P6SM VCSH SCT027 BKN070 BKN200
  FM201500 08012KT P6SM BKN100
  FM201700 08015G20KT P6SM BKN050


Raw METAR
KMIA 200053Z 35006KT 10SM BKN023 BKN070 OVC100 26/24 A3002 RMK AO2 RAB32E52 SLP164 P0000 T02610244
KMIA 200033Z 01005KT 9SM -RA SCT020 BKN025 BKN060 OVC200 26/23 A3001 RMK AO2 RAB32 P0000 T02610233
KMIA 192353Z 01004KT 10SM SCT024 BKN080 BKN200 28/23 A3000 RMK AO2 SLP157 CB DSNT N AND W T02830233 10317 20278 53007
KMIA 192253Z 04008KT 10SM SCT027 BKN070 BKN200 28/24 A2998 RMK AO2 SLP153 CB DSNT N AND SW T02830239

METAR Board
Radar Display
Forecast Discussion

FOR SITUATIONAL AWARENESS. NOT TO BE USED FOR FLIGHT PLANNING PURPOSES.